createdAt,value
2023-01-20T00:02:56.769Z,103319.16
2023-01-20T00:07:59.812Z,103340.97
2023-01-20T00:13:02.783Z,103337.31
2023-01-20T00:18:05.865Z,103309.94
2023-01-20T00:23:08.899Z,103332.03
2023-01-20T00:28:12.026Z,103348.66
2023-01-20T00:33:15.119Z,103336.47
2023-01-20T00:38:18.579Z,103339.69
2023-01-20T00:43:21.696Z,103341.78
2023-01-20T00:48:24.651Z,103309.75
2023-01-20T00:53:27.711Z,103323.84
2023-01-20T00:58:38.891Z,103333.94
2023-01-20T01:03:42.400Z,103356.47
2023-01-20T01:08:45.793Z,103326.41
2023-01-20T01:13:48.877Z,103364.75
2023-01-20T01:18:55.067Z,103356.00
2023-01-20T01:23:58.213Z,103370.25
2023-01-20T01:29:01.265Z,103352.13
2023-01-20T01:34:04.378Z,103367.16
2023-01-20T01:39:07.415Z,103373.81
2023-01-20T01:44:13.095Z,103366.38
2023-01-20T01:49:31.664Z,103373.41
2023-01-20T01:54:38.749Z,103360.44
2023-01-20T01:59:43.821Z,103336.91
2023-01-20T02:04:46.849Z,103361.06
2023-01-20T02:09:50.072Z,103326.09
2023-01-20T02:14:58.112Z,103356.06
2023-01-20T02:20:19.342Z,103374.88
2023-01-20T02:26:03.148Z,103359.72
2023-01-20T02:31:11.856Z,103384.88
2023-01-20T02:36:44.041Z,103375.38
2023-01-20T02:42:07.694Z,103351.22
2023-01-20T02:47:18.081Z,103365.94
2023-01-20T02:52:26.319Z,103379.91
2023-01-20T02:57:58.608Z,103375.31
2023-01-20T03:03:06.076Z,103378.00
2023-01-20T03:08:13.712Z,103354.59
2023-01-20T03:13:26.441Z,103381.47
2023-01-20T03:18:30.850Z,103359.56
2023-01-20T03:23:37.866Z,103365.09
2023-01-20T03:28:45.787Z,103391.44
2023-01-20T03:33:52.415Z,103372.38
2023-01-20T03:38:57.258Z,103395.53
2023-01-20T03:44:15.268Z,103415.25
2023-01-20T03:49:35.903Z,103412.97
2023-01-20T03:54:52.101Z,103377.38
2023-01-20T03:59:56.903Z,103386.09
2023-01-20T04:05:03.095Z,103402.56
2023-01-20T04:10:12.723Z,103416.28
2023-01-20T04:15:17.750Z,103389.41
2023-01-20T04:20:21.290Z,103419.69
2023-01-20T04:25:30.190Z,103400.41
2023-01-20T04:30:33.256Z,103433.03
2023-01-20T04:35:36.296Z,103416.63
2023-01-20T04:40:39.302Z,103438.88
2023-01-20T04:45:42.339Z,103429.28
2023-01-20T04:50:45.379Z,103442.06
2023-01-20T04:55:48.473Z,103433.47
2023-01-20T05:06:12.950Z,103419.06
2023-01-20T05:11:16.163Z,103454.03
2023-01-20T05:16:24.345Z,103445.59
2023-01-20T05:21:27.800Z,103451.34
2023-01-20T05:26:30.969Z,103435.22
2023-01-20T05:31:34.111Z,103431.56
2023-01-20T05:36:37.220Z,103463.75
2023-01-20T05:41:40.297Z,103457.25
2023-01-20T05:46:43.521Z,103468.00
2023-01-20T05:51:46.661Z,103445.06
2023-01-20T05:56:50.063Z,103464.94
2023-01-20T06:01:53.197Z,103464.09
2023-01-20T06:06:56.345Z,103473.06
2023-01-20T06:11:59.483Z,103467.97
2023-01-20T06:17:02.637Z,103468.63
2023-01-20T06:22:07.527Z,103471.28
2023-01-20T06:27:13.517Z,103464.19
2023-01-20T06:32:16.989Z,103466.47
2023-01-20T06:37:20.934Z,103446.53
2023-01-20T06:42:24.225Z,103459.50
2023-01-20T06:47:27.558Z,103477.06
2023-01-20T06:52:30.668Z,103465.75
2023-01-20T06:57:33.777Z,103431.31
2023-01-20T07:02:37.137Z,103440.69
2023-01-20T07:07:40.609Z,103467.56
2023-01-20T07:12:44.079Z,103459.97
2023-01-20T07:17:47.463Z,103464.19
2023-01-20T07:22:50.755Z,103476.69
2023-01-20T07:27:54.164Z,103464.22
2023-01-20T07:32:57.497Z,103436.44
2023-01-20T07:38:00.955Z,103454.44
2023-01-20T07:43:05.075Z,103431.22
2023-01-20T07:48:08.584Z,103457.16
2023-01-20T07:53:12.125Z,103444.28
2023-01-20T07:58:15.312Z,103435.91
2023-01-20T08:03:18.499Z,103464.25
2023-01-20T08:08:21.616Z,103462.44
2023-01-20T08:13:24.706Z,103451.25
2023-01-20T08:18:28.502Z,103434.81
2023-01-20T08:23:31.571Z,103416.41
2023-01-20T08:28:36.469Z,103410.00
2023-01-20T08:33:42.526Z,103419.59
2023-01-20T08:38:47.235Z,103420.28
2023-01-20T08:43:50.997Z,103426.25
2023-01-20T08:48:55.190Z,103394.75
2023-01-20T08:53:59.014Z,103417.31
2023-01-20T08:59:02.637Z,103405.50
2023-01-20T09:04:07.280Z,103387.19
2023-01-20T09:09:11.382Z,103394.25
2023-01-20T09:14:14.420Z,103401.53
2023-01-20T09:19:17.834Z,103384.53
2023-01-20T09:24:21.063Z,103368.31
2023-01-20T09:29:24.181Z,103366.44
2023-01-20T09:34:29.803Z,103346.75
2023-01-20T09:39:51.361Z,103375.63
2023-01-20T09:45:07.703Z,103360.03
2023-01-20T09:50:50.985Z,103351.88
2023-01-20T09:56:11.540Z,103337.44
2023-01-20T10:01:36.064Z,103344.47
2023-01-20T10:06:44.430Z,103331.44
2023-01-20T10:11:49.587Z,103304.69
2023-01-20T10:17:04.737Z,103303.22
2023-01-20T10:22:13.550Z,103305.38
2023-01-20T10:27:16.625Z,103307.78
2023-01-20T10:32:32.687Z,103322.47
2023-01-20T10:37:36.434Z,103287.03
2023-01-20T10:42:49.670Z,103300.56
2023-01-20T10:48:17.399Z,103295.69
2023-01-20T10:53:34.390Z,103314.25
2023-01-20T10:58:41.230Z,103282.25
2023-01-20T11:03:47.374Z,103308.03
2023-01-20T11:08:59.397Z,103297.25
2023-01-20T11:14:08.644Z,103293.19
2023-01-20T11:19:12.214Z,103305.03
2023-01-20T11:24:41.206Z,103312.47
2023-01-20T11:29:51.257Z,103324.22
2023-01-20T11:34:55.710Z,103314.03
2023-01-20T11:40:01.321Z,103315.03
2023-01-20T11:45:21.583Z,103299.88
2023-01-20T11:50:35.473Z,103324.88
2023-01-20T11:55:45.588Z,103322.88
2023-01-20T12:00:51.750Z,103298.72
2023-01-20T12:06:24.156Z,103286.41
2023-01-20T12:11:34.298Z,103303.75
2023-01-20T12:16:39.387Z,103327.50
2023-01-20T12:21:48.050Z,103336.81
2023-01-20T12:26:51.150Z,103346.38
2023-01-20T12:31:54.721Z,103357.31
2023-01-20T12:37:00.266Z,103358.84
2023-01-20T12:42:40.714Z,103363.22
2023-01-20T12:48:06.566Z,103361.44
2023-01-20T12:53:18.353Z,103359.38
2023-01-20T12:58:46.728Z,103340.66
2023-01-20T13:04:21.707Z,103327.81
2023-01-20T13:09:49.305Z,103331.41
2023-01-20T13:14:59.155Z,103326.47
2023-01-20T13:20:05.203Z,103306.00
2023-01-20T13:25:16.195Z,103303.78
2023-01-20T13:30:37.473Z,103330.66
2023-01-20T13:35:45.953Z,103323.63
2023-01-20T13:40:52.091Z,103324.06
2023-01-20T13:46:04.862Z,103318.75
2023-01-20T13:51:17.092Z,103323.44
2023-01-20T14:01:48.613Z,103329.34
2023-01-20T14:06:53.151Z,103313.91
2023-01-20T14:11:58.011Z,103351.50
2023-01-20T14:17:02.433Z,103336.84
2023-01-20T14:22:27.048Z,103343.19
2023-01-20T14:27:32.499Z,103342.19
2023-01-20T14:32:37.394Z,103341.75
2023-01-20T14:37:40.905Z,103365.22
2023-01-20T14:42:56.046Z,103348.91
2023-01-20T14:48:02.458Z,103374.94
2023-01-20T14:53:05.988Z,103358.84
2023-01-20T14:58:14.673Z,103377.97
2023-01-20T15:03:26.009Z,103371.19
2023-01-20T15:08:34.849Z,103375.66
2023-01-20T15:13:39.255Z,103358.56
2023-01-20T15:24:24.106Z,103387.63
2023-01-20T15:29:33.156Z,103379.13
2023-01-20T15:34:36.567Z,103379.69
2023-01-20T15:44:59.094Z,103378.22
2023-01-20T15:50:02.189Z,103393.69
2023-01-20T15:55:06.691Z,103410.66
2023-01-20T16:00:24.010Z,103406.63
2023-01-20T16:05:27.115Z,103385.63
2023-01-20T16:10:30.171Z,103402.94
2023-01-20T16:15:33.437Z,103407.72
2023-01-20T16:20:36.708Z,103392.03
2023-01-20T16:25:40.867Z,103376.47
2023-01-20T16:30:43.906Z,103394.59
2023-01-20T16:35:47.666Z,103383.00
2023-01-20T16:40:52.850Z,103397.25
2023-01-20T16:45:56.374Z,103413.66
2023-01-20T16:51:04.779Z,103414.97
2023-01-20T16:56:17.020Z,103420.19
2023-01-20T17:01:24.856Z,103423.75
2023-01-20T17:06:29.048Z,103417.97
2023-01-20T17:11:37.769Z,103411.53
2023-01-20T17:16:40.966Z,103410.91
2023-01-20T17:21:44.440Z,103422.66
2023-01-20T17:26:47.511Z,103425.78
2023-01-20T17:31:50.682Z,103415.84
2023-01-20T17:36:53.781Z,103416.03
2023-01-20T17:41:56.948Z,103432.63
2023-01-20T17:46:59.924Z,103426.25
2023-01-20T17:52:02.965Z,103423.44
2023-01-20T17:57:06.013Z,103457.53
2023-01-20T18:02:12.945Z,103435.69
2023-01-20T18:07:16.099Z,103444.16
2023-01-20T18:12:20.790Z,103423.13
2023-01-20T18:17:23.739Z,103442.84
2023-01-20T18:22:26.904Z,103442.25
2023-01-20T18:27:30.018Z,103435.84
2023-01-20T18:32:33.151Z,103455.34
2023-01-20T18:37:36.123Z,103435.53
2023-01-20T18:42:39.115Z,103428.66
2023-01-20T18:47:42.429Z,103459.59
2023-01-20T18:52:45.432Z,103468.47
2023-01-20T18:57:48.456Z,103449.81
2023-01-20T19:02:52.503Z,103459.16
2023-01-20T19:07:55.631Z,103420.00
2023-01-20T19:12:58.651Z,103434.06
2023-01-20T19:18:01.706Z,103462.88
2023-01-20T19:23:04.721Z,103462.13
2023-01-20T19:28:09.498Z,103460.44
2023-01-20T19:33:12.552Z,103441.88
2023-01-20T19:38:15.555Z,103454.19
2023-01-20T19:43:18.699Z,103456.22
2023-01-20T19:48:21.682Z,103469.00
2023-01-20T19:53:24.760Z,103487.31
2023-01-20T19:58:27.857Z,103439.31
2023-01-20T20:03:38.149Z,103487.22
2023-01-20T20:08:41.094Z,103457.34
2023-01-20T20:13:44.170Z,103476.81
2023-01-20T20:18:51.885Z,103464.66
2023-01-20T20:24:00.031Z,103476.31
2023-01-20T20:29:03.895Z,103484.13
2023-01-20T20:34:12.785Z,103478.88
2023-01-20T20:39:17.935Z,103464.66
2023-01-20T20:44:20.965Z,103467.09
2023-01-20T20:49:24.008Z,103473.06
2023-01-20T20:54:27.005Z,103441.44
2023-01-20T20:59:30.098Z,103461.69
2023-01-20T21:04:33.308Z,103447.19
2023-01-20T21:09:36.810Z,103446.91
2023-01-20T21:14:39.986Z,103433.19
2023-01-20T21:19:43.099Z,103482.06
2023-01-20T21:24:46.165Z,103470.81
2023-01-20T21:29:49.211Z,103479.94
2023-01-20T21:34:52.232Z,103457.25
2023-01-20T21:39:55.235Z,103464.03
2023-01-20T21:44:58.265Z,103479.03
2023-01-20T21:50:20.023Z,103486.81
2023-01-20T21:55:24.456Z,103483.03
2023-01-20T22:00:30.087Z,103464.44
2023-01-20T22:05:33.161Z,103455.50
2023-01-20T22:10:36.303Z,103468.38
2023-01-20T22:15:40.429Z,103447.41
2023-01-20T22:20:43.798Z,103456.66
2023-01-20T22:25:46.754Z,103469.59
2023-01-20T22:30:50.110Z,103450.66
2023-01-20T22:35:54.559Z,103461.81
2023-01-20T22:41:06.843Z,103486.16
2023-01-20T22:46:14.589Z,103492.19
2023-01-20T22:51:21.070Z,103486.41
2023-01-20T22:56:26.393Z,103492.94
2023-01-20T23:01:32.619Z,103494.84
2023-01-20T23:06:36.764Z,103489.25
2023-01-20T23:11:40.451Z,103481.00
2023-01-20T23:16:44.039Z,103469.31
2023-01-20T23:21:47.051Z,103497.63
2023-01-20T23:26:54.620Z,103485.16
2023-01-20T23:31:59.090Z,103487.03
2023-01-20T23:37:02.216Z,103474.09
2023-01-20T23:42:05.413Z,103495.94
2023-01-20T23:47:10.564Z,103479.72
2023-01-20T23:52:13.882Z,103491.25
2023-01-20T23:57:16.950Z,103466.66
